Time;durP1;ratioP1;P1;durP2;ratioP2;P2;SDS_P1;SDS_P2;PMS_P1;PMS_P2;Temp;Humidity;BMP_temperature;BMP_pressure;BME280_temperature;BME280_humidity;BME280_pressure;Samples;Min_cycle;Max_cycle;Signal;HPM_P1;HPM_P2
2022/12/02 04:02:39;;;;;;;;;;;3.60;99.90;;;;;;5118978;23;19931;-69
2022/12/02 04:05:06;;;;;;;;;;;3.60;99.90;;;;;;4930625;29;20013;-71
2022/12/02 04:07:33;;;;;;;;;;;3.60;99.90;;;;;;4925063;29;19974;-70
2022/12/02 04:09:59;;;;;;;;;;;3.60;99.90;;;;;;4934614;29;19958;-70
2022/12/02 04:12:26;;;;;;;;;;;3.60;99.90;;;;;;4912365;29;20022;-72
2022/12/02 04:14:52;;;;;;;;;;;3.60;99.90;;;;;;4912553;29;19958;-70
2022/12/02 04:17:19;;;;;;;;;;;3.60;99.90;;;;;;4911207;29;20018;-70
2022/12/02 04:19:47;;;;;;;;;;;3.60;99.90;;;;;;4913459;29;20422;-69
2022/12/02 04:22:14;;;;;;;;;;;3.60;99.90;;;;;;4913084;29;19949;-71
2022/12/02 04:24:41;;;;;;;;;;;3.50;99.90;;;;;;4908961;29;20034;-71
2022/12/02 04:27:07;;;;;;;;;;;3.50;99.90;;;;;;4912935;29;20021;-71
2022/12/02 04:29:34;;;;;;;;;;;3.50;99.90;;;;;;4908444;29;19927;-71
2022/12/02 04:32:01;;;;;;;;;;;3.50;99.90;;;;;;4912557;29;19931;-70
2022/12/02 04:34:27;;;;;;;;;;;3.50;99.90;;;;;;4913785;29;19927;-71
2022/12/02 04:36:56;;;;;;;;;;;3.50;99.90;;;;;;4910997;29;19927;-70
2022/12/02 04:39:22;;;;;;;;;;;3.50;99.90;;;;;;4909885;29;20291;-70
2022/12/02 04:41:49;;;;;;;;;;;3.50;99.90;;;;;;4914001;29;20013;-71
2022/12/02 04:44:16;;;;;;;;;;;3.50;99.90;;;;;;4924085;29;19928;-71
2022/12/02 04:46:43;;;;;;;;;;;3.50;99.90;;;;;;4905369;29;19927;-70
2022/12/02 04:49:10;;;;;;;;;;;3.50;99.90;;;;;;4915095;29;19953;-71
2022/12/02 04:51:36;;;;;;;;;;;3.50;99.90;;;;;;4904787;29;19942;-70
2022/12/02 04:54:05;;;;;;;;;;;3.50;99.90;;;;;;4908212;29;19927;-71
2022/12/02 04:56:31;;;;;;;;;;;3.50;99.90;;;;;;4907367;29;19931;-71
2022/12/02 04:58:58;;;;;;;;;;;3.60;99.90;;;;;;4916317;29;19926;-71
2022/12/02 05:01:25;;;;;;;;;;;3.50;99.90;;;;;;4910951;29;20310;-71
2022/12/02 05:03:52;;;;;;;;;;;3.60;99.90;;;;;;4913090;29;19931;-70
2022/12/02 05:06:18;;;;;;;;;;;3.60;99.90;;;;;;4913966;29;19927;-70
2022/12/02 05:08:45;;;;;;;;;;;3.50;99.90;;;;;;4913180;29;19927;-70
2022/12/02 05:11:13;;;;;;;;;;;3.60;99.90;;;;;;4915818;29;19978;-71
2022/12/02 05:13:40;;;;;;;;;;;3.60;99.90;;;;;;4915054;29;19937;-69
2022/12/02 05:16:07;;;;;;;;;;;3.50;99.90;;;;;;4916196;29;19927;-71
2022/12/02 05:18:34;;;;;;;;;;;3.60;99.90;;;;;;4914911;29;19927;-70
2022/12/02 05:21:01;;;;;;;;;;;3.60;99.90;;;;;;4915876;29;19970;-70
2022/12/02 05:23:27;;;;;;;;;;;3.60;99.90;;;;;;4914681;29;20379;-70
2022/12/02 05:25:54;;;;;;;;;;;3.60;99.90;;;;;;4910573;29;20316;-74
2022/12/02 05:28:22;;;;;;;;;;;3.60;99.90;;;;;;4907269;29;19934;-71
2022/12/02 05:30:49;;;;;;;;;;;3.50;99.90;;;;;;4912436;29;19928;-70
2022/12/02 05:33:16;;;;;;;;;;;3.60;99.90;;;;;;4908963;29;19978;-71
2022/12/02 05:35:43;;;;;;;;;;;3.50;99.90;;;;;;4913302;29;20356;-72
2022/12/02 05:38:10;;;;;;;;;;;3.50;99.90;;;;;;4908122;29;19938;-71
2022/12/02 05:40:36;;;;;;;;;;;3.50;99.90;;;;;;4908383;29;19935;-70
2022/12/02 05:43:13;;;;;;;;;;;3.60;99.90;;;;;;4906691;29;19934;-71
2022/12/02 05:45:42;;;;;;;;;;;3.60;99.90;;;;;;4907404;29;19934;-72
2022/12/02 05:48:10;;;;;;;;;;;3.60;99.90;;;;;;4909170;29;19934;-70
2022/12/02 05:50:37;;;;;;;;;;;3.50;99.90;;;;;;4908001;29;19935;-70
2022/12/02 05:53:06;;;;;;;;;;;3.50;99.90;;;;;;4908326;29;19931;-70
2022/12/02 05:55:34;;;;;;;;;;;3.50;99.90;;;;;;4908567;29;19927;-77
2022/12/02 05:58:02;;;;;;;;;;;3.50;99.90;;;;;;4900174;29;19932;-73
2022/12/02 06:00:30;;;;;;;;;;;3.40;99.90;;;;;;4912464;29;19927;-74
2022/12/02 06:03:00;;;;;;;;;;;3.50;99.90;;;;;;4908068;29;19975;-71
2022/12/02 06:05:29;;;;;;;;;;;3.50;99.90;;;;;;4910373;29;19934;-75
2022/12/02 06:07:58;;;;;;;;;;;3.60;99.90;;;;;;4905609;29;20367;-74
2022/12/02 06:10:26;;;;;;;;;;;3.50;99.90;;;;;;4911657;29;19942;-73
2022/12/02 06:12:54;;;;;;;;;;;3.60;99.90;;;;;;4904180;29;19982;-73
2022/12/02 06:15:21;;;;;;;;;;;3.60;99.90;;;;;;4910032;29;19931;-73
2022/12/02 06:17:48;;;;;;;;;;;3.60;99.90;;;;;;4912804;29;19927;-72
2022/12/02 06:20:20;;;;;;;;;;;3.60;99.90;;;;;;4906091;29;19942;-71
2022/12/02 06:22:47;;;;;;;;;;;3.50;99.90;;;;;;4909596;29;20495;-72
2022/12/02 06:25:21;;;;;;;;;;;3.50;99.90;;;;;;4904786;29;19931;-72
2022/12/02 06:27:48;;;;;;;;;;;3.50;99.90;;;;;;4912595;29;19974;-72
2022/12/02 06:30:15;;;;;;;;;;;3.50;99.90;;;;;;4905941;29;19927;-71
2022/12/02 06:32:43;;;;;;;;;;;3.50;99.90;;;;;;4909989;29;19931;-71
2022/12/02 06:35:19;;;;;;;;;;;3.50;99.90;;;;;;4902463;29;19932;-72
2022/12/02 06:37:46;;;;;;;;;;;3.50;99.90;;;;;;4903260;29;20406;-71
2022/12/02 06:40:21;;;;;;;;;;;3.50;99.90;;;;;;4904737;29;20315;-71
2022/12/02 06:42:48;;;;;;;;;;;3.50;99.90;;;;;;4911422;29;19927;-71
2022/12/02 06:45:20;;;;;;;;;;;3.60;99.90;;;;;;4913917;29;19927;-72
2022/12/02 06:47:49;;;;;;;;;;;3.60;99.90;;;;;;4907954;29;19936;-71
2022/12/02 06:50:29;;;;;;;;;;;3.60;99.90;;;;;;4910588;29;19933;-73
2022/12/02 06:52:59;;;;;;;;;;;3.60;99.90;;;;;;4912488;29;19970;-72
2022/12/02 06:55:29;;;;;;;;;;;3.60;99.90;;;;;;4904902;29;20475;-72
2022/12/02 06:57:59;;;;;;;;;;;3.60;99.90;;;;;;4913576;29;19934;-71
2022/12/02 07:00:26;;;;;;;;;;;3.60;99.90;;;;;;4906782;29;19931;-71
2022/12/02 07:02:52;;;;;;;;;;;3.60;99.90;;;;;;4904248;29;20338;-72
2022/12/02 07:05:20;;;;;;;;;;;3.60;99.90;;;;;;4913200;29;19927;-72
2022/12/02 07:07:49;;;;;;;;;;;3.60;99.90;;;;;;4908894;29;19987;-72
2022/12/02 07:10:19;;;;;;;;;;;3.60;99.90;;;;;;4913954;29;20417;-71
2022/12/02 07:12:47;;;;;;;;;;;3.50;99.90;;;;;;4905349;29;19938;-71
2022/12/02 07:15:22;;;;;;;;;;;3.60;99.90;;;;;;4913119;29;19978;-73
2022/12/02 07:17:49;;;;;;;;;;;3.50;99.90;;;;;;4916327;29;19927;-71
2022/12/02 07:20:23;;;;;;;;;;;3.50;99.90;;;;;;4911481;29;19927;-73
2022/12/02 07:22:54;;;;;;;;;;;3.60;99.90;;;;;;4913621;29;19953;-71
2022/12/02 07:25:28;;;;;;;;;;;3.50;99.90;;;;;;4908274;29;19950;-72
2022/12/02 07:27:54;;;;;;;;;;;3.60;99.90;;;;;;4927266;29;19927;-71
2022/12/02 07:30:23;;;;;;;;;;;3.60;99.90;;;;;;4909131;29;19928;-71
2022/12/02 07:32:50;;;;;;;;;;;3.60;99.90;;;;;;4903654;29;19963;-71
2022/12/02 07:35:18;;;;;;;;;;;3.60;99.90;;;;;;4905761;29;19932;-72
2022/12/02 07:37:45;;;;;;;;;;;3.60;99.90;;;;;;4914345;29;19983;-72
2022/12/02 07:40:15;;;;;;;;;;;3.60;99.90;;;;;;4909595;29;19935;-71
2022/12/02 07:42:42;;;;;;;;;;;3.60;99.90;;;;;;4911129;29;20031;-72
2022/12/02 07:45:09;;;;;;;;;;;3.50;99.90;;;;;;4909975;29;19928;-72
2022/12/02 07:47:36;;;;;;;;;;;3.50;99.90;;;;;;4913814;29;19927;-72
2022/12/02 07:50:03;;;;;;;;;;;3.50;99.90;;;;;;4902768;29;19935;-71
2022/12/02 07:52:30;;;;;;;;;;;3.50;99.90;;;;;;4907817;29;20402;-71
2022/12/02 07:54:56;;;;;;;;;;;3.50;99.90;;;;;;4915435;29;19987;-72
2022/12/02 07:57:25;;;;;;;;;;;3.60;99.90;;;;;;4912786;29;19931;-67
2022/12/02 07:59:51;;;;;;;;;;;3.60;99.90;;;;;;4913240;29;19931;-72
2022/12/02 08:02:18;;;;;;;;;;;3.60;99.90;;;;;;4910048;29;19931;-72
2022/12/02 08:04:45;;;;;;;;;;;3.60;99.90;;;;;;4907149;29;20338;-71
2022/12/02 08:07:12;;;;;;;;;;;3.60;99.90;;;;;;4905868;29;19927;-71
2022/12/02 08:09:38;;;;;;;;;;;3.60;99.90;;;;;;4912748;29;19927;-71
2022/12/02 08:12:05;;;;;;;;;;;3.60;99.90;;;;;;4903453;29;20339;-72
2022/12/02 08:14:34;;;;;;;;;;;3.60;99.90;;;;;;4911251;29;19991;-74
2022/12/02 08:17:00;;;;;;;;;;;3.60;99.90;;;;;;4909234;29;20310;-72
2022/12/02 08:19:27;;;;;;;;;;;3.60;99.90;;;;;;4913543;29;19934;-73
2022/12/02 08:21:54;;;;;;;;;;;3.70;99.90;;;;;;4905897;29;20359;-72
2022/12/02 08:24:21;;;;;;;;;;;3.70;99.90;;;;;;4909146;29;19935;-72
2022/12/02 08:26:48;;;;;;;;;;;3.70;99.90;;;;;;4915496;29;20374;-72
2022/12/02 08:29:14;;;;;;;;;;;3.70;99.90;;;;;;4915565;29;19931;-72
2022/12/02 08:31:43;;;;;;;;;;;3.70;99.90;;;;;;4902780;29;19983;-72
2022/12/02 08:34:09;;;;;;;;;;;3.70;99.90;;;;;;4913087;29;19935;-72
2022/12/02 08:36:36;;;;;;;;;;;3.70;99.90;;;;;;4914393;29;19932;-72
2022/12/02 08:39:04;;;;;;;;;;;3.70;99.90;;;;;;4914548;29;19934;-71
2022/12/02 08:41:31;;;;;;;;;;;3.70;99.90;;;;;;4902657;29;19927;-71
2022/12/02 08:43:58;;;;;;;;;;;3.70;99.90;;;;;;4905621;29;20367;-72
2022/12/02 08:46:26;;;;;;;;;;;3.70;99.90;;;;;;4908403;29;19927;-72
2022/12/02 08:48:54;;;;;;;;;;;3.80;99.90;;;;;;4899961;29;20429;-73
2022/12/02 08:51:21;;;;;;;;;;;3.80;99.90;;;;;;4909755;29;20470;-71
2022/12/02 08:53:48;;;;;;;;;;;3.80;99.90;;;;;;4913589;29;19931;-72
2022/12/02 08:56:15;;;;;;;;;;;3.90;99.90;;;;;;4911922;29;20379;-71
2022/12/02 08:58:42;;;;;;;;;;;3.80;99.90;;;;;;4912560;29;19978;-72
2022/12/02 09:01:09;;;;;;;;;;;3.80;99.90;;;;;;4907361;29;20379;-70
2022/12/02 09:03:36;;;;;;;;;;;3.80;99.90;;;;;;4905471;29;20429;-71
2022/12/02 09:06:04;;;;;;;;;;;3.90;99.90;;;;;;4910654;29;19970;-71
2022/12/02 09:08:30;;;;;;;;;;;3.80;99.90;;;;;;4907136;29;20395;-73
2022/12/02 09:10:57;;;;;;;;;;;3.90;99.90;;;;;;4910199;29;19935;-72
2022/12/02 09:13:24;;;;;;;;;;;3.90;99.90;;;;;;4905576;29;19927;-71
2022/12/02 09:15:51;;;;;;;;;;;3.90;99.90;;;;;;4905730;29;19983;-71
2022/12/02 09:18:17;;;;;;;;;;;3.90;99.90;;;;;;4906992;29;20386;-71
2022/12/02 09:20:44;;;;;;;;;;;4.00;99.90;;;;;;4907419;29;20462;-72
2022/12/02 09:23:12;;;;;;;;;;;3.90;99.90;;;;;;4909895;29;19927;-71
2022/12/02 09:25:39;;;;;;;;;;;4.00;99.90;;;;;;4912031;29;19927;-74
2022/12/02 09:28:06;;;;;;;;;;;4.00;99.90;;;;;;4908763;29;19938;-70
2022/12/02 09:30:33;;;;;;;;;;;4.00;99.90;;;;;;4912965;29;19927;-71
2022/12/02 09:33:00;;;;;;;;;;;3.90;99.90;;;;;;4914733;29;19931;-72
2022/12/02 09:35:27;;;;;;;;;;;3.90;99.90;;;;;;4913448;29;20543;-70
2022/12/02 09:37:53;;;;;;;;;;;3.90;99.90;;;;;;4903762;29;20410;-71
2022/12/02 09:40:22;;;;;;;;;;;4.00;99.90;;;;;;4908741;29;20330;-73
2022/12/02 09:42:49;;;;;;;;;;;3.90;99.90;;;;;;4904307;29;20402;-71
2022/12/02 09:45:16;;;;;;;;;;;3.90;99.90;;;;;;4905185;29;19932;-73
2022/12/02 09:47:43;;;;;;;;;;;3.90;99.90;;;;;;4908414;29;19979;-72
2022/12/02 09:50:11;;;;;;;;;;;3.90;99.90;;;;;;4911687;29;19927;-71
2022/12/02 09:52:38;;;;;;;;;;;3.90;99.90;;;;;;4910805;29;19928;-71
2022/12/02 09:55:11;;;;;;;;;;;3.90;99.90;;;;;;4909916;29;20006;-71
2022/12/02 09:57:39;;;;;;;;;;;3.90;99.90;;;;;;4905273;29;19931;-72
2022/12/02 10:00:08;;;;;;;;;;;3.80;99.90;;;;;;4908773;29;19982;-71
2022/12/02 10:02:38;;;;;;;;;;;3.80;99.90;;;;;;4909224;29;20271;-69
2022/12/02 10:05:07;;;;;;;;;;;3.80;99.90;;;;;;4906789;29;19927;-71
2022/12/02 10:07:34;;;;;;;;;;;3.90;99.90;;;;;;4909610;29;20065;-71
2022/12/02 10:10:01;;;;;;;;;;;3.80;99.90;;;;;;4906869;29;19927;-71
2022/12/02 10:12:27;;;;;;;;;;;3.80;99.90;;;;;;4905172;29;19927;-71
2022/12/02 10:14:56;;;;;;;;;;;3.80;99.90;;;;;;4910633;29;19934;-72
2022/12/02 10:17:23;;;;;;;;;;;3.80;99.90;;;;;;4902128;29;20454;-71
2022/12/02 10:19:50;;;;;;;;;;;3.80;99.90;;;;;;4907568;29;19927;-72
2022/12/02 10:22:18;;;;;;;;;;;3.80;99.90;;;;;;4906085;29;19931;-70
2022/12/02 10:24:44;;;;;;;;;;;3.80;99.90;;;;;;4906389;29;19927;-72
2022/12/02 10:27:23;;;;;;;;;;;3.80;99.90;;;;;;4904587;29;19938;-71
2022/12/02 10:29:50;;;;;;;;;;;3.80;99.90;;;;;;4908997;29;19927;-72
2022/12/02 10:32:21;;;;;;;;;;;3.80;99.90;;;;;;4904278;29;19931;-74
2022/12/02 10:35:01;;;;;;;;;;;3.80;99.90;;;;;;4910011;29;19936;-70
2022/12/02 10:37:28;;;;;;;;;;;3.90;99.90;;;;;;4910760;29;20441;-71
2022/12/02 10:40:07;;;;;;;;;;;3.90;99.90;;;;;;4912168;29;19933;-72
2022/12/02 10:42:34;;;;;;;;;;;3.90;99.90;;;;;;4909746;29;19934;-71
2022/12/02 10:45:09;;;;;;;;;;;3.90;99.90;;;;;;4900275;29;19937;-71
2022/12/02 10:47:37;;;;;;;;;;;3.90;99.90;;;;;;4910797;29;19991;-72
2022/12/02 10:50:09;;;;;;;;;;;4.00;99.90;;;;;;4907384;29;19927;-71
2022/12/02 10:52:44;;;;;;;;;;;4.00;99.90;;;;;;4903045;29;19976;-71
2022/12/02 10:55:12;;;;;;;;;;;4.00;99.90;;;;;;4912121;29;19934;-71
2022/12/02 10:57:39;;;;;;;;;;;4.00;99.90;;;;;;4905828;29;19931;-72
2022/12/02 11:00:12;;;;;;;;;;;4.00;99.90;;;;;;4911398;29;19927;-72
2022/12/02 11:02:45;;;;;;;;;;;4.00;99.90;;;;;;4904301;29;20387;-71
2022/12/02 11:05:13;;;;;;;;;;;4.00;99.90;;;;;;4906254;29;19927;-71
2022/12/02 11:07:40;;;;;;;;;;;4.00;99.90;;;;;;4909132;29;19979;-71
2022/12/02 11:10:18;;;;;;;;;;;4.00;99.90;;;;;;4905681;29;20362;-72
2022/12/02 11:12:59;;;;;;;;;;;4.00;99.90;;;;;;4927758;29;19928;-71
2022/12/02 11:15:33;;;;;;;;;;;4.10;99.90;;;;;;4904242;29;19938;-70
2022/12/02 11:18:01;;;;;;;;;;;4.00;99.90;;;;;;4902516;29;19927;-71
2022/12/02 11:20:33;;;;;;;;;;;4.00;99.90;;;;;;4900346;29;20279;-71
2022/12/02 11:23:23;;;;;;;;;;;4.00;99.90;;;;;;4901328;29;19927;-71
2022/12/02 11:26:05;;;;;;;;;;;4.00;99.90;;;;;;4905007;29;19931;-71
2022/12/02 11:28:56;;;;;;;;;;;4.10;99.90;;;;;;4901115;29;20343;-71
2022/12/02 11:31:24;;;;;;;;;;;4.20;99.90;;;;;;4903740;29;20287;-71
2022/12/02 11:34:09;;;;;;;;;;;4.20;99.90;;;;;;4911728;29;19931;-70
2022/12/02 11:36:37;;;;;;;;;;;4.20;99.90;;;;;;4901321;29;19927;-74
2022/12/02 11:39:05;;;;;;;;;;;4.10;99.90;;;;;;4910139;29;19927;-73
2022/12/02 11:41:47;;;;;;;;;;;4.10;99.90;;;;;;4911926;29;19986;-73
2022/12/02 11:44:21;;;;;;;;;;;4.10;99.90;;;;;;4899105;29;19928;-70
2022/12/02 11:46:49;;;;;;;;;;;4.10;99.90;;;;;;4908907;29;19938;-73
2022/12/02 11:49:27;;;;;;;;;;;4.10;99.90;;;;;;4904008;29;19935;-70
2022/12/02 11:52:02;;;;;;;;;;;4.10;99.90;;;;;;4901041;29;19927;-71
2022/12/02 11:54:29;;;;;;;;;;;4.20;99.90;;;;;;4910758;29;19927;-71
2022/12/02 11:56:56;;;;;;;;;;;4.20;99.90;;;;;;4904581;29;19995;-70
2022/12/02 11:59:24;;;;;;;;;;;4.20;99.90;;;;;;4914694;29;19927;-71
2022/12/02 12:01:51;;;;;;;;;;;4.30;99.90;;;;;;4913649;29;19935;-72
2022/12/02 12:04:22;;;;;;;;;;;4.30;99.90;;;;;;4905832;29;19935;-71
2022/12/02 12:06:53;;;;;;;;;;;4.20;99.90;;;;;;4906970;29;19927;-71
2022/12/02 12:09:21;;;;;;;;;;;4.20;99.90;;;;;;4908187;29;19983;-70
2022/12/02 12:12:03;;;;;;;;;;;4.30;99.90;;;;;;4915615;29;19966;-71
2022/12/02 12:14:30;;;;;;;;;;;4.30;99.90;;;;;;4913179;29;19995;-72
2022/12/02 12:17:11;;;;;;;;;;;4.40;99.90;;;;;;4913026;29;20299;-71
2022/12/02 12:19:38;;;;;;;;;;;4.30;99.90;;;;;;4911347;29;19931;-71
2022/12/02 12:22:23;;;;;;;;;;;4.30;99.90;;;;;;4912911;29;19931;-72
2022/12/02 12:24:51;;;;;;;;;;;4.30;99.90;;;;;;4907161;29;19931;-73
2022/12/02 12:27:39;;;;;;;;;;;4.30;99.90;;;;;;4906317;29;19936;-72
2022/12/02 12:30:06;;;;;;;;;;;4.30;99.90;;;;;;4909203;29;20355;-72
2022/12/02 12:32:33;;;;;;;;;;;4.40;99.90;;;;;;4913772;29;19931;-69
2022/12/02 12:35:00;;;;;;;;;;;4.50;99.90;;;;;;4909140;29;19927;-71
2022/12/02 12:37:27;;;;;;;;;;;4.70;99.90;;;;;;4905182;29;19931;-72
2022/12/02 12:39:55;;;;;;;;;;;4.70;99.90;;;;;;4931556;29;20030;-72
2022/12/02 12:42:22;;;;;;;;;;;4.70;99.90;;;;;;4911590;29;19927;-69
2022/12/02 12:44:48;;;;;;;;;;;4.70;99.90;;;;;;4916623;29;19932;-72
2022/12/02 12:47:15;;;;;;;;;;;4.80;99.90;;;;;;4912140;29;19931;-72
2022/12/02 12:49:42;;;;;;;;;;;4.80;99.90;;;;;;4916113;29;20359;-72
2022/12/02 12:52:09;;;;;;;;;;;4.80;99.90;;;;;;4905825;29;20298;-72
2022/12/02 12:54:35;;;;;;;;;;;4.70;99.90;;;;;;4911047;29;19927;-72
2022/12/02 12:57:04;;;;;;;;;;;4.70;99.90;;;;;;4908000;29;19927;-74
2022/12/02 12:59:31;;;;;;;;;;;4.80;99.90;;;;;;4902781;29;19934;-70
2022/12/02 13:01:57;;;;;;;;;;;4.80;99.90;;;;;;4911414;29;19927;-71
2022/12/02 13:04:24;;;;;;;;;;;4.70;99.90;;;;;;4915340;29;19934;-71
2022/12/02 13:06:51;;;;;;;;;;;4.80;99.90;;;;;;4907727;29;20275;-72
2022/12/02 13:09:18;;;;;;;;;;;4.80;99.90;;;;;;4904450;29;19927;-70
2022/12/02 13:11:45;;;;;;;;;;;4.80;99.90;;;;;;4906670;29;19931;-70
2022/12/02 13:14:13;;;;;;;;;;;4.80;99.90;;;;;;4904017;29;19927;-70
2022/12/02 13:16:40;;;;;;;;;;;4.80;99.90;;;;;;4910734;29;20399;-70
2022/12/02 13:19:06;;;;;;;;;;;4.80;99.90;;;;;;4908225;29;19938;-70
2022/12/02 13:21:33;;;;;;;;;;;4.80;99.90;;;;;;4908257;29;19928;-68
2022/12/02 13:24:02;;;;;;;;;;;5.00;99.90;;;;;;4910797;29;19974;-70
2022/12/02 13:26:28;;;;;;;;;;;5.10;99.90;;;;;;4911749;29;20040;-70
2022/12/02 13:28:57;;;;;;;;;;;5.10;99.90;;;;;;4907244;29;19927;-69
2022/12/02 13:31:25;;;;;;;;;;;5.00;99.90;;;;;;4905570;29;19928;-71
2022/12/02 13:33:52;;;;;;;;;;;4.90;99.90;;;;;;4907802;29;19934;-70
2022/12/02 13:36:18;;;;;;;;;;;4.80;99.90;;;;;;4899576;29;19931;-71
2022/12/02 13:38:45;;;;;;;;;;;4.70;99.90;;;;;;4909835;29;19999;-72
2022/12/02 13:41:12;;;;;;;;;;;4.60;99.90;;;;;;4905441;29;19927;-71
2022/12/02 13:43:38;;;;;;;;;;;4.60;99.90;;;;;;4907459;29;19960;-72
2022/12/02 13:46:06;;;;;;;;;;;4.50;99.90;;;;;;4908101;29;19954;-71
2022/12/02 13:48:34;;;;;;;;;;;4.40;99.90;;;;;;4911692;29;19935;-70
2022/12/02 13:51:01;;;;;;;;;;;4.30;99.90;;;;;;4908291;29;19975;-71
2022/12/02 13:53:28;;;;;;;;;;;4.30;99.90;;;;;;4904080;29;19931;-70
2022/12/02 13:55:55;;;;;;;;;;;4.30;99.90;;;;;;4913068;29;19990;-70
2022/12/02 13:58:22;;;;;;;;;;;4.20;99.90;;;;;;4901706;29;19950;-71
2022/12/02 14:00:48;;;;;;;;;;;4.20;99.90;;;;;;4908260;29;19947;-71
2022/12/02 14:03:15;;;;;;;;;;;4.20;99.90;;;;;;4913464;29;19931;-70
2022/12/02 14:05:43;;;;;;;;;;;4.10;99.90;;;;;;4901276;29;20347;-70
2022/12/02 14:08:10;;;;;;;;;;;4.10;99.90;;;;;;4903692;29;19931;-70
2022/12/02 14:10:37;;;;;;;;;;;4.10;99.90;;;;;;4902015;29;19939;-70
2022/12/02 14:13:05;;;;;;;;;;;4.10;99.90;;;;;;4903212;29;19927;-72
2022/12/02 14:15:32;;;;;;;;;;;4.10;99.90;;;;;;4900545;29;20279;-70
2022/12/02 14:17:58;;;;;;;;;;;4.10;99.90;;;;;;4909546;29;20014;-70
2022/12/02 14:20:25;;;;;;;;;;;4.10;99.90;;;;;;4911873;29;19931;-71
2022/12/02 14:22:54;;;;;;;;;;;4.10;99.90;;;;;;4907560;29;19927;-71
2022/12/02 14:25:20;;;;;;;;;;;4.00;99.90;;;;;;4903008;29;19927;-70
2022/12/02 14:27:47;;;;;;;;;;;4.00;99.90;;;;;;4909308;29;19935;-70
2022/12/02 14:30:14;;;;;;;;;;;3.90;99.90;;;;;;4905263;29;20315;-71
2022/12/02 14:32:41;;;;;;;;;;;3.90;99.90;;;;;;4905668;29;19927;-71
2022/12/02 14:35:08;;;;;;;;;;;3.90;99.90;;;;;;4908246;29;20355;-71
2022/12/02 14:37:35;;;;;;;;;;;4.00;99.90;;;;;;4901739;29;19927;-69
2022/12/02 14:40:03;;;;;;;;;;;4.00;99.90;;;;;;4909177;29;19931;-70
2022/12/02 14:42:30;;;;;;;;;;;3.90;99.90;;;;;;4901100;29;19927;-69
2022/12/02 14:44:57;;;;;;;;;;;3.90;99.90;;;;;;4904984;29;19935;-70
2022/12/02 14:47:23;;;;;;;;;;;3.90;99.90;;;;;;4908112;29;19978;-71
2022/12/02 14:49:50;;;;;;;;;;;3.90;99.90;;;;;;4905007;29;19958;-71
2022/12/02 14:52:17;;;;;;;;;;;3.90;99.90;;;;;;4907035;29;19928;-70
2022/12/02 14:54:44;;;;;;;;;;;3.90;99.90;;;;;;4900936;29;19927;-71
2022/12/02 14:57:14;;;;;;;;;;;3.90;99.90;;;;;;4905866;29;19934;-71
2022/12/02 14:59:41;;;;;;;;;;;3.80;99.90;;;;;;4919335;29;19927;-70
2022/12/02 15:02:08;;;;;;;;;;;3.80;99.90;;;;;;4905754;29;19935;-70
2022/12/02 15:04:35;;;;;;;;;;;3.80;99.90;;;;;;4907041;29;20390;-71
2022/12/02 15:07:01;;;;;;;;;;;3.80;99.90;;;;;;4901477;29;19983;-71
2022/12/02 15:09:28;;;;;;;;;;;3.80;99.90;;;;;;4908535;29;20291;-70
2022/12/02 15:11:56;;;;;;;;;;;3.80;99.90;;;;;;4905483;29;19928;-70
2022/12/02 15:14:24;;;;;;;;;;;3.70;99.90;;;;;;4908037;29;19927;-71
2022/12/02 15:16:51;;;;;;;;;;;3.70;99.90;;;;;;4905915;29;19992;-70
2022/12/02 15:19:18;;;;;;;;;;;3.70;99.90;;;;;;4897316;29;19934;-71
2022/12/02 15:21:45;;;;;;;;;;;3.70;99.90;;;;;;4909889;29;19927;-71
2022/12/02 15:24:11;;;;;;;;;;;3.70;99.90;;;;;;4905891;29;19928;-71
2022/12/02 15:26:38;;;;;;;;;;;3.60;99.90;;;;;;4900830;29;19928;-70
2022/12/02 15:29:05;;;;;;;;;;;3.60;99.90;;;;;;4902658;29;19931;-70
2022/12/02 15:31:33;;;;;;;;;;;3.60;99.90;;;;;;4911748;29;19927;-70
2022/12/02 15:34:00;;;;;;;;;;;3.60;99.90;;;;;;4908860;29;19927;-70
2022/12/02 15:36:26;;;;;;;;;;;3.60;99.90;;;;;;4907817;29;19928;-72
2022/12/02 15:38:53;;;;;;;;;;;3.60;99.90;;;;;;4911471;29;20399;-70
2022/12/02 15:41:20;;;;;;;;;;;3.60;99.90;;;;;;4903956;29;20073;-71
2022/12/02 15:43:46;;;;;;;;;;;3.60;99.90;;;;;;4903350;29;20018;-70
2022/12/02 15:46:13;;;;;;;;;;;3.50;99.90;;;;;;4906485;29;19958;-70
2022/12/02 15:48:42;;;;;;;;;;;3.50;99.90;;;;;;4912555;29;19979;-69
2022/12/02 15:51:08;;;;;;;;;;;3.50;99.90;;;;;;4914991;29;19966;-70
2022/12/02 15:53:35;;;;;;;;;;;3.50;99.90;;;;;;4906271;29;19931;-70
2022/12/02 15:56:02;;;;;;;;;;;3.50;99.90;;;;;;4903788;29;19927;-70
2022/12/02 15:58:29;;;;;;;;;;;3.40;99.90;;;;;;4906877;29;19931;-71
2022/12/02 16:00:55;;;;;;;;;;;3.50;99.90;;;;;;4903163;29;19927;-70
2022/12/02 16:03:22;;;;;;;;;;;3.50;99.90;;;;;;4907346;29;19927;-70
2022/12/02 16:05:50;;;;;;;;;;;3.40;99.90;;;;;;4913238;29;19931;-70
2022/12/02 16:08:17;;;;;;;;;;;3.40;99.90;;;;;;4909701;29;19927;-71
2022/12/02 16:10:44;;;;;;;;;;;3.40;99.90;;;;;;4906399;29;20403;-71
2022/12/02 16:13:11;;;;;;;;;;;3.40;99.90;;;;;;4914067;29;19927;-70
2022/12/02 16:15:38;;;;;;;;;;;3.40;99.90;;;;;;4906650;29;19933;-70
2022/12/02 16:18:04;;;;;;;;;;;3.40;99.90;;;;;;4912419;29;19933;-71
2022/12/02 16:20:31;;;;;;;;;;;3.40;99.90;;;;;;4907612;29;19926;-72
2022/12/02 16:22:59;;;;;;;;;;;3.40;99.90;;;;;;4902886;29;19928;-72
2022/12/02 16:25:26;;;;;;;;;;;3.40;99.90;;;;;;4905009;29;19987;-72
2022/12/02 16:27:53;;;;;;;;;;;3.40;99.90;;;;;;4906426;29;19927;-70
2022/12/02 16:30:20;;;;;;;;;;;3.30;99.90;;;;;;4914100;29;20340;-71
2022/12/02 16:32:48;;;;;;;;;;;3.30;99.90;;;;;;4910462;29;19935;-71
2022/12/02 16:35:15;;;;;;;;;;;3.30;99.90;;;;;;4907104;29;20288;-69
2022/12/02 16:37:41;;;;;;;;;;;3.30;99.90;;;;;;4913315;29;19970;-72
2022/12/02 16:40:11;;;;;;;;;;;3.30;99.90;;;;;;4912155;29;19927;-69
2022/12/02 16:42:38;;;;;;;;;;;3.30;99.90;;;;;;4915640;29;19931;-71
2022/12/02 16:45:05;;;;;;;;;;;3.30;99.90;;;;;;4911620;29;19927;-70
2022/12/02 16:47:32;;;;;;;;;;;3.30;99.90;;;;;;4916390;29;19927;-70
2022/12/02 16:49:59;;;;;;;;;;;3.30;99.90;;;;;;4916541;29;19927;-70
2022/12/02 16:52:26;;;;;;;;;;;3.30;99.90;;;;;;4909495;29;19935;-70
2022/12/02 16:54:53;;;;;;;;;;;3.30;99.90;;;;;;4927604;29;20387;-72
2022/12/02 16:57:21;;;;;;;;;;;3.30;99.90;;;;;;4913047;29;19927;-71
2022/12/02 16:59:48;;;;;;;;;;;3.30;99.90;;;;;;4915382;29;19927;-71
2022/12/02 17:02:15;;;;;;;;;;;3.20;99.90;;;;;;4928923;29;20363;-72
2022/12/02 17:04:42;;;;;;;;;;;3.20;99.90;;;;;;4909261;29;19928;-70
2022/12/02 17:07:08;;;;;;;;;;;3.20;99.90;;;;;;4916191;29;19927;-69
2022/12/02 17:09:35;;;;;;;;;;;3.20;99.90;;;;;;4915964;29;19975;-71
2022/12/02 17:12:02;;;;;;;;;;;3.20;99.90;;;;;;4915819;29;19927;-71
2022/12/02 17:14:31;;;;;;;;;;;3.20;99.90;;;;;;4914146;29;19931;-71
2022/12/02 17:16:57;;;;;;;;;;;3.20;99.90;;;;;;4913472;29;20374;-69
2022/12/02 17:19:24;;;;;;;;;;;3.20;99.90;;;;;;4914616;29;19927;-71
2022/12/02 17:21:51;;;;;;;;;;;3.10;99.90;;;;;;4915673;29;20338;-69
2022/12/02 17:24:18;;;;;;;;;;;3.10;99.90;;;;;;4914473;29;19927;-70
2022/12/02 17:26:44;;;;;;;;;;;3.00;99.90;;;;;;4912030;29;19927;-71
2022/12/02 17:29:11;;;;;;;;;;;3.00;99.90;;;;;;4910900;29;19931;-71
2022/12/02 17:31:40;;;;;;;;;;;3.00;99.90;;;;;;4910941;29;20017;-70
2022/12/02 17:34:06;;;;;;;;;;;3.00;99.90;;;;;;4909564;29;19931;-70
2022/12/02 17:36:33;;;;;;;;;;;3.00;99.90;;;;;;4912028;29;19927;-70
2022/12/02 17:39:00;;;;;;;;;;;3.00;99.90;;;;;;4915280;29;19928;-71
2022/12/02 17:41:29;;;;;;;;;;;3.00;99.90;;;;;;4909515;29;19938;-70
2022/12/02 17:43:55;;;;;;;;;;;3.00;99.90;;;;;;4912804;29;20394;-70
2022/12/02 17:46:22;;;;;;;;;;;3.00;99.90;;;;;;4913210;29;19927;-71
2022/12/02 17:48:50;;;;;;;;;;;3.00;99.90;;;;;;4913962;29;19982;-70
2022/12/02 17:51:17;;;;;;;;;;;3.00;99.90;;;;;;4912768;29;19934;-69
2022/12/02 17:53:44;;;;;;;;;;;3.00;99.90;;;;;;4912061;29;19982;-68
2022/12/02 17:56:11;;;;;;;;;;;3.00;99.90;;;;;;4914852;29;20362;-77
2022/12/02 17:58:38;;;;;;;;;;;3.00;99.90;;;;;;4913604;29;19983;-78
2022/12/02 18:01:05;;;;;;;;;;;3.00;99.90;;;;;;4907126;29;19931;-75
2022/12/02 18:03:32;;;;;;;;;;;3.00;99.90;;;;;;4913347;29;19979;-77
2022/12/02 18:06:00;;;;;;;;;;;3.00;99.90;;;;;;4910032;29;19928;-74
2022/12/02 18:08:27;;;;;;;;;;;3.00;99.90;;;;;;4912597;29;19927;-69
2022/12/02 18:10:53;;;;;;;;;;;3.00;99.90;;;;;;4912410;29;20398;-69
2022/12/02 18:13:20;;;;;;;;;;;2.90;99.90;;;;;;4912496;29;19931;-69
2022/12/02 18:15:47;;;;;;;;;;;3.00;99.90;;;;;;4911557;29;19936;-70
2022/12/02 18:18:14;;;;;;;;;;;2.90;99.90;;;;;;4912720;29;19935;-67
2022/12/02 18:20:41;;;;;;;;;;;2.90;99.90;;;;;;4912601;29;19946;-70
2022/12/02 18:23:09;;;;;;;;;;;2.90;99.90;;;;;;4911969;29;19931;-70
2022/12/02 18:25:38;;;;;;;;;;;2.80;99.90;;;;;;4910873;29;20400;-69
2022/12/02 18:28:04;;;;;;;;;;;2.90;99.90;;;;;;4909299;29;20487;-69
2022/12/02 18:30:31;;;;;;;;;;;2.80;99.90;;;;;;4908939;29;19931;-69
2022/12/02 18:32:58;;;;;;;;;;;2.80;99.90;;;;;;4907736;29;19934;-69
2022/12/02 18:35:26;;;;;;;;;;;2.80;99.90;;;;;;4912429;29;19927;-69
2022/12/02 18:37:53;;;;;;;;;;;2.80;99.90;;;;;;4900453;29;19928;-68